Time;durP1;ratioP1;P1;durP2;ratioP2;P2;SDS_P1;SDS_P2;PMS_P1;PMS_P2;Temp;Humidity;BMP_temperature;BMP_pressure;BME280_temperature;BME280_humidity;BME280_pressure;Samples;Min_cycle;Max_cycle;Signal;HPM_P1;HPM_P2
2023/02/20 00:00:49;;;;;;;7.05;3.13;;;;;;;3.83;100.00;94055.63;2108393;28;20051;-74
2023/02/20 00:01:52;;;;;;;6.15;3.13;;;;;;;3.82;100.00;94055.97;2115662;27;20039;-74
2023/02/20 00:02:54;;;;;;;10.90;3.50;;;;;;;3.83;100.00;94052.22;2115616;27;20040;-74
2023/02/20 00:03:56;;;;;;;6.75;3.53;;;;;;;3.87;100.00;94058.34;2110603;28;20462;-74
2023/02/20 00:04:57;;;;;;;6.53;3.63;;;;;;;3.84;100.00;94057.16;2108777;27;20122;-75
2023/02/20 00:05:58;;;;;;;12.00;3.67;;;;;;;3.82;100.00;94062.03;2109243;28;20028;-74
2023/02/20 00:06:59;;;;;;;7.35;3.63;;;;;;;3.87;100.00;94056.47;2108527;28;20031;-74
2023/02/20 00:08:00;;;;;;;9.35;3.95;;;;;;;3.88;100.00;94062.53;2108846;28;20074;-75
2023/02/20 00:09:02;;;;;;;12.93;3.53;;;;;;;3.87;100.00;94058.34;2108341;28;20064;-74
2023/02/20 00:10:04;;;;;;;8.20;3.38;;;;;;;3.88;100.00;94055.34;2111667;28;20462;-75
2023/02/20 00:11:06;;;;;;;8.50;3.80;;;;;;;3.88;100.00;94052.72;2108921;28;20039;-74
2023/02/20 00:12:08;;;;;;;12.00;3.70;;;;;;;3.90;100.00;94047.06;2110723;28;20401;-74
2023/02/20 00:13:09;;;;;;;7.57;3.22;;;;;;;3.87;100.00;94050.41;2107693;28;20028;-74
2023/02/20 00:14:10;;;;;;;8.98;3.40;;;;;;;3.83;100.00;94053.00;2107416;28;20026;-75
2023/02/20 00:15:14;;;;;;;7.53;3.40;;;;;;;3.89;100.00;94056.88;2107969;28;20565;-75
2023/02/20 00:16:15;;;;;;;10.70;4.22;;;;;;;4.02;100.00;94046.91;2110653;28;20102;-74
2023/02/20 00:17:16;;;;;;;6.68;3.53;;;;;;;4.01;100.00;94054.09;2099695;28;20452;-75
2023/02/20 00:18:18;;;;;;;10.52;3.35;;;;;;;4.06;100.00;94046.97;2105520;28;20040;-75
2023/02/20 00:19:19;;;;;;;8.07;3.78;;;;;;;4.12;100.00;94048.22;2122249;27;20047;-75
2023/02/20 00:20:22;;;;;;;6.88;3.97;;;;;;;4.01;100.00;94040.84;2124997;27;20065;-76
2023/02/20 00:21:23;;;;;;;9.98;3.47;;;;;;;4.15;100.00;94037.69;2107110;28;20039;-74
2023/02/20 00:22:25;;;;;;;7.53;3.47;;;;;;;4.05;100.00;94040.94;2098774;28;20433;-74
2023/02/20 00:23:26;;;;;;;8.02;3.60;;;;;;;4.01;100.00;94045.38;2120946;27;20531;-73
2023/02/20 00:24:27;;;;;;;9.75;3.63;;;;;;;4.00;100.00;94039.34;2126763;27;20046;-74
2023/02/20 00:25:28;;;;;;;9.38;3.70;;;;;;;4.03;100.00;94041.25;2126098;27;20027;-74
2023/02/20 00:26:29;;;;;;;9.75;3.28;;;;;;;4.04;100.00;94049.97;2130380;27;20682;-74
2023/02/20 00:27:30;;;;;;;7.93;3.55;;;;;;;4.00;100.00;94036.69;2125758;27;20034;-74
2023/02/20 00:28:31;;;;;;;8.88;3.53;;;;;;;3.97;100.00;94026.78;2125511;27;20041;-74
2023/02/20 00:29:32;;;;;;;8.45;3.45;;;;;;;3.99;100.00;94029.09;2125107;27;20034;-74
2023/02/20 00:30:33;;;;;;;7.13;4.18;;;;;;;3.92;100.00;94032.38;2125199;27;20030;-74
2023/02/20 00:31:35;;;;;;;7.93;3.67;;;;;;;3.93;100.00;94041.06;2124737;27;20038;-75
2023/02/20 00:32:37;;;;;;;7.53;3.38;;;;;;;3.91;100.00;94035.38;2125347;27;20034;-73
2023/02/20 00:33:38;;;;;;;8.45;4.13;;;;;;;4.16;100.00;94043.75;2125133;27;20660;-74
2023/02/20 00:34:39;;;;;;;10.98;4.00;;;;;;;4.34;100.00;94036.09;2123724;27;20122;-75
2023/02/20 00:35:40;;;;;;;9.32;3.90;;;;;;;4.23;100.00;94036.69;2119058;27;20027;-75
2023/02/20 00:36:41;;;;;;;9.02;3.72;;;;;;;4.14;100.00;94030.13;2119502;27;20059;-74
2023/02/20 00:37:44;;;;;;;7.68;3.60;;;;;;;4.07;100.00;94041.31;2125370;27;20041;-72
2023/02/20 00:38:46;;;;;;;9.38;3.67;;;;;;;4.04;100.00;94045.44;2125351;27;20034;-73
2023/02/20 00:39:47;;;;;;;8.25;4.18;;;;;;;4.02;100.00;94042.38;2122700;27;20035;-73
2023/02/20 00:40:48;;;;;;;11.73;3.78;;;;;;;4.01;100.00;94045.38;2125168;27;20378;-74
2023/02/20 00:41:49;;;;;;;10.80;3.40;;;;;;;3.97;100.00;94031.31;2126665;27;20019;-74
2023/02/20 00:42:50;;;;;;;7.90;3.33;;;;;;;3.96;100.00;94029.81;2125287;27;20030;-74
2023/02/20 00:43:51;;;;;;;8.80;3.67;;;;;;;3.97;100.00;94037.38;2125227;27;20056;-73
2023/02/20 00:44:52;;;;;;;9.57;3.50;;;;;;;3.94;100.00;94026.72;2125200;27;20392;-74
2023/02/20 00:45:54;;;;;;;6.55;3.50;;;;;;;4.07;100.00;94029.97;2125484;27;20170;-73
2023/02/20 00:46:55;;;;;;;9.27;3.70;;;;;;;4.01;100.00;94032.91;2127796;27;20080;-73
2023/02/20 00:47:56;;;;;;;10.13;3.83;;;;;;;4.01;100.00;94032.91;2127688;27;20440;-73
2023/02/20 00:48:59;;;;;;;9.25;3.58;;;;;;;3.99;100.00;94031.72;2125238;27;20046;-73
2023/02/20 00:50:00;;;;;;;6.13;3.35;;;;;;;3.95;100.00;94030.91;2124786;27;20031;-73
2023/02/20 00:51:01;;;;;;;9.70;3.92;;;;;;;4.10;100.00;94027.41;2124834;27;20051;-72
2023/02/20 00:52:02;;;;;;;9.75;3.67;;;;;;;4.08;100.00;94034.16;2124532;27;20094;-73
2023/02/20 00:53:03;;;;;;;6.32;3.60;;;;;;;4.12;100.00;94037.63;2129637;27;20034;-72
2023/02/20 00:54:05;;;;;;;10.60;3.80;;;;;;;4.05;100.00;94038.28;2121112;27;20716;-75
2023/02/20 00:55:06;;;;;;;9.77;3.72;;;;;;;4.01;100.00;94032.16;2125372;27;20084;-73
2023/02/20 00:56:07;;;;;;;8.25;3.55;;;;;;;4.09;100.00;94031.16;2116210;27;20055;-73
2023/02/20 00:57:08;;;;;;;6.60;3.45;;;;;;;4.09;100.00;94044.41;2116454;27;20042;-72
2023/02/20 00:58:09;;;;;;;10.27;4.55;;;;;;;4.13;100.00;94031.25;2125152;27;20043;-72
2023/02/20 00:59:11;;;;;;;9.15;4.57;;;;;;;4.23;100.00;94030.66;2114944;27;20024;-72
2023/02/20 01:00:20;;;;;;;11.35;4.30;;;;;;;4.48;100.00;94031.81;2119154;27;20602;-73
2023/02/20 01:01:21;;;;;;;8.02;4.10;;;;;;;4.35;100.00;94027.06;2125152;27;20405;-72
2023/02/20 01:02:22;;;;;;;8.20;3.85;;;;;;;4.25;100.00;94028.41;2125276;27;20707;-72
2023/02/20 01:03:23;;;;;;;10.70;4.43;;;;;;;4.34;100.00;94026.28;2125388;27;20035;-72
2023/02/20 01:04:24;;;;;;;10.50;4.45;;;;;;;4.27;100.00;94037.53;2125410;27;20038;-72
2023/02/20 01:05:25;;;;;;;9.23;4.10;;;;;;;4.20;100.00;94031.34;2129618;27;20034;-72
2023/02/20 01:06:26;;;;;;;12.55;4.07;;;;;;;4.16;100.00;94039.22;2125064;27;20030;-71
2023/02/20 01:07:27;;;;;;;12.52;3.85;;;;;;;4.10;100.00;94031.94;2125315;27;20074;-72
2023/02/20 01:08:31;;;;;;;9.88;4.03;;;;;;;4.09;100.00;94046.28;2125271;27;20058;-74
2023/02/20 01:09:32;;;;;;;15.23;4.40;;;;;;;4.15;100.00;94035.03;2124844;27;20031;-73
2023/02/20 01:10:33;;;;;;;11.10;4.60;;;;;;;4.52;100.00;94037.94;2124311;27;20030;-72
2023/02/20 01:11:34;;;;;;;10.98;4.60;;;;;;;4.42;100.00;94037.75;2124714;27;20033;-73
2023/02/20 01:12:35;;;;;;;11.82;3.80;;;;;;;4.36;100.00;94039.19;2128177;27;20031;-73
2023/02/20 01:13:36;;;;;;;6.95;3.92;;;;;;;4.41;100.00;94034.34;2124971;27;20041;-72
2023/02/20 01:14:37;;;;;;;12.68;4.55;;;;;;;4.46;100.00;94041.22;2124913;27;20027;-73
2023/02/20 01:15:38;;;;;;;9.98;4.10;;;;;;;4.67;100.00;94036.28;2124703;27;20030;-73
2023/02/20 01:16:50;;;;;;;12.57;5.00;;;;;;;4.56;100.00;94040.63;2125271;27;20026;-74
2023/02/20 01:17:51;;;;;;;7.93;3.85;;;;;;;4.54;100.00;94045.53;2124754;27;20035;-73
2023/02/20 01:18:52;;;;;;;12.55;4.72;;;;;;;4.42;100.00;94043.06;2121838;27;20552;-73
2023/02/20 01:19:54;;;;;;;10.98;4.00;;;;;;;4.36;100.00;94047.88;2115073;27;20072;-73
2023/02/20 01:20:55;;;;;;;9.57;4.40;;;;;;;4.30;100.00;94046.63;2114372;27;20027;-72
2023/02/20 01:21:57;;;;;;;7.25;4.20;;;;;;;4.27;100.00;94039.41;2124517;27;20046;-73
2023/02/20 01:22:58;;;;;;;8.77;3.78;;;;;;;4.27;100.00;94045.47;2127846;27;20027;-73
2023/02/20 01:23:59;;;;;;;10.05;4.28;;;;;;;4.25;100.00;94044.28;2125276;27;20035;-72
2023/02/20 01:25:00;;;;;;;13.07;4.32;;;;;;;4.20;100.00;94047.97;2124846;27;20031;-73
2023/02/20 01:26:01;;;;;;;10.10;4.22;;;;;;;4.15;100.00;94042.97;2124574;27;20090;-73
2023/02/20 01:27:02;;;;;;;13.98;4.75;;;;;;;4.14;100.00;94046.00;2124856;27;20593;-73
2023/02/20 01:28:03;;;;;;;9.25;3.90;;;;;;;4.09;100.00;94046.28;2115482;27;20043;-74
2023/02/20 01:29:05;;;;;;;10.13;4.22;;;;;;;4.10;100.00;94040.63;2115133;27;20093;-73
2023/02/20 01:30:07;;;;;;;7.70;4.22;;;;;;;4.10;100.00;94039.88;2124278;27;20093;-73
2023/02/20 01:31:09;;;;;;;9.20;5.00;;;;;;;4.14;100.00;94040.69;2121025;27;20023;-74
2023/02/20 01:32:12;;;;;;;11.00;4.43;;;;;;;4.13;100.00;94047.13;2124220;27;20056;-73
2023/02/20 01:33:13;;;;;;;11.40;4.25;;;;;;;4.16;100.00;94038.44;2115141;27;20421;-74
2023/02/20 01:34:16;;;;;;;9.85;4.30;;;;;;;4.15;100.00;94034.28;2114559;27;20063;-73
2023/02/20 01:35:17;;;;;;;11.73;4.50;;;;;;;4.13;100.00;94042.59;2126203;27;20722;-73
2023/02/20 01:36:19;;;;;;;11.63;4.45;;;;;;;4.09;100.00;94046.28;2128510;27;20031;-73
2023/02/20 01:37:21;;;;;;;10.13;4.60;;;;;;;4.37;100.00;94051.28;2116011;27;20040;-74
2023/02/20 01:38:23;;;;;;;9.45;4.45;;;;;;;4.25;100.00;94046.94;2116292;27;20494;-73
2023/02/20 01:39:29;;;;;;;10.30;5.03;;;;;;;4.24;100.00;94053.34;2115692;27;20126;-72
2023/02/20 01:40:32;;;;;;;8.48;4.85;;;;;;;4.20;100.00;94053.28;2116509;27;20031;-74
2023/02/20 01:41:33;;;;;;;14.68;4.03;;;;;;;4.19;100.00;94058.94;2115339;27;20027;-75
2023/02/20 01:42:35;;;;;;;8.90;4.15;;;;;;;4.23;100.00;94054.47;2115657;27;20038;-73
2023/02/20 01:43:37;;;;;;;9.75;4.38;;;;;;;4.27;100.00;94048.13;2125009;27;20031;-74
2023/02/20 01:44:39;;;;;;;10.13;4.10;;;;;;;4.23;100.00;94051.81;2124782;27;20023;-74
2023/02/20 01:45:40;;;;;;;9.45;4.18;;;;;;;4.18;100.00;94044.19;2124960;27;20043;-74
2023/02/20 01:46:46;;;;;;;10.45;4.70;;;;;;;4.12;100.00;94051.63;2124634;27;20035;-73
2023/02/20 01:47:55;;;;;;;11.52;4.65;;;;;;;4.13;100.00;94044.47;2126888;27;20047;-72
2023/02/20 01:49:08;;;;;;;11.18;4.97;;;;;;;4.23;100.00;94046.53;2128372;27;20488;-73
2023/02/20 01:50:09;;;;;;;7.35;4.38;;;;;;;4.17;100.00;94047.91;2124463;27;20030;-72
2023/02/20 01:51:12;;;;;;;7.68;4.00;;;;;;;4.18;100.00;94054.75;2124264;27;20030;-73
2023/02/20 01:52:19;;;;;;;10.90;4.78;;;;;;;4.21;100.00;94046.09;2124534;27;20042;-73
2023/02/20 01:53:29;;;;;;;12.10;4.25;;;;;;;4.17;100.00;94050.56;2124751;27;20366;-73
2023/02/20 01:54:32;;;;;;;9.00;4.18;;;;;;;4.12;100.00;94048.22;2124728;27;20027;-72
2023/02/20 01:55:42;;;;;;;13.68;3.83;;;;;;;4.08;100.00;94042.84;2124830;27;20031;-72
2023/02/20 01:56:46;;;;;;;11.57;4.57;;;;;;;4.02;100.00;94042.38;2124600;27;20457;-72
2023/02/20 01:57:53;;;;;;;10.18;4.38;;;;;;;4.07;100.00;94046.63;2115542;27;20484;-72
2023/02/20 01:58:55;;;;;;;17.23;4.40;;;;;;;4.04;100.00;94042.81;2107076;27;20097;-73
2023/02/20 02:00:01;;;;;;;8.45;4.18;;;;;;;4.00;100.00;94043.84;2116805;27;20085;-72
2023/02/20 02:01:05;;;;;;;10.15;4.00;;;;;;;3.96;100.00;94043.78;2124280;27;20478;-73
2023/02/20 02:02:07;;;;;;;8.80;4.18;;;;;;;3.93;100.00;94049.00;2124510;27;20272;-74
2023/02/20 02:03:14;;;;;;;8.68;4.28;;;;;;;3.90;100.00;94047.81;2124192;27;20114;-73
2023/02/20 02:04:16;;;;;;;11.18;4.13;;;;;;;3.84;100.00;94041.28;2126020;27;20099;-73
2023/02/20 02:05:17;;;;;;;12.35;4.10;;;;;;;3.85;100.00;94040.16;2126290;27;20094;-73
2023/02/20 02:06:19;;;;;;;14.30;4.70;;;;;;;3.80;100.00;94043.09;2124546;27;20059;-73
2023/02/20 02:07:20;;;;;;;10.30;4.72;;;;;;;3.82;100.00;94048.81;2124554;27;20034;-74
2023/02/20 02:08:24;;;;;;;12.07;4.82;;;;;;;3.80;100.00;94043.09;2124438;27;20027;-73
2023/02/20 02:09:41;;;;;;;11.15;4.70;;;;;;;3.85;100.00;94042.81;2124599;27;20141;-73
2023/02/20 02:10:52;;;;;;;12.18;4.55;;;;;;;3.88;100.00;94036.06;2122230;27;20023;-73
2023/02/20 02:11:53;;;;;;;16.27;5.68;;;;;;;3.98;100.00;94036.25;2118062;27;20039;-72
2023/02/20 02:12:54;;;;;;;12.55;4.72;;;;;;;4.00;100.00;94038.56;2117923;27;20047;-72
2023/02/20 02:13:55;;;;;;;9.60;4.32;;;;;;;3.94;100.00;94040.72;2115096;27;20023;-73
2023/02/20 02:14:57;;;;;;;8.55;4.38;;;;;;;3.84;100.00;94038.66;2115217;28;20123;-72
2023/02/20 02:16:31;;;;;;;12.48;4.53;;;;;;;3.81;100.00;94035.94;2106219;28;20054;-72
2023/02/20 02:19:18;;;;;;;;;;;;;;;3.58;100.00;94033.25;2144413;27;20601;-74
2023/02/20 02:20:42;;;;;;;7.72;5.13;;;;;;;3.51;100.00;94034.63;2121447;27;20279;-78
2023/02/20 02:22:03;;;;;;;8.43;4.13;;;;;;;3.41;100.00;94039.69;2126136;27;20070;-74
2023/02/20 02:23:13;;;;;;;8.32;3.90;;;;;;;3.38;100.00;94029.81;2133465;27;20081;-75
2023/02/20 02:24:22;;;;;;;9.75;4.10;;;;;;;3.32;100.00;94033.84;2135987;27;20027;-75
2023/02/20 02:25:51;;;;;;;10.18;4.15;;;;;;;3.23;100.00;94028.78;2136217;27;20073;-74
2023/02/20 02:27:16;;;;;;;9.20;4.05;;;;;;;3.16;100.00;94036.53;2136326;27;20456;-75
2023/02/20 02:28:17;;;;;;;12.05;3.92;;;;;;;3.07;100.00;94035.97;2133856;27;20495;-74
2023/02/20 02:29:32;;;;;;;10.45;4.03;;;;;;;2.99;100.00;94038.47;2135965;27;20656;-74
2023/02/20 02:30:52;;;;;;;10.50;3.55;;;;;;;2.96;100.00;94038.38;2126895;27;20058;-75
2023/02/20 02:32:20;;;;;;;8.00;3.60;;;;;;;2.91;100.00;94039.41;2127803;27;20084;-75
2023/02/20 02:34:05;;;;;;;11.93;4.07;;;;;;;2.86;100.00;94036.28;2134109;27;20373;-75
2023/02/20 02:35:30;;;;;;;7.47;3.40;;;;;;;2.73;100.00;94025.06;2131546;27;20111;-74
2023/02/20 02:36:49;;;;;;;6.90;3.33;;;;;;;2.67;100.00;94032.47;2126259;27;20130;-74
2023/02/20 02:38:25;;;;;;;10.73;3.75;;;;;;;2.63;100.00;94036.13;2127764;27;20126;-74
2023/02/20 02:40:00;;;;;;;8.50;3.67;;;;;;;2.56;100.00;94023.53;2118077;28;20031;-73
2023/02/20 02:41:14;;;;;;;5.00;2.95;;;;;;;2.59;100.00;94024.72;2119024;27;20421;-74
2023/02/20 02:42:18;;;;;;;8.20;3.08;;;;;;;2.56;100.00;94023.53;2124019;27;20015;-74
2023/02/20 02:43:34;;;;;;;7.43;3.22;;;;;;;2.49;100.00;94013.56;2133642;27;20289;-74
2023/02/20 02:44:41;;;;;;;11.65;3.08;;;;;;;2.50;100.00;94016.97;2131993;27;20125;-73
2023/02/20 02:45:53;;;;;;;10.68;3.20;;;;;;;2.60;100.00;94023.63;2127052;27;20113;-75
2023/02/20 02:46:57;;;;;;;10.77;3.17;;;;;;;2.50;100.00;94014.34;2128084;27;20037;-73
2023/02/20 02:48:08;;;;;;;8.82;3.15;;;;;;;2.58;100.00;94017.91;2134325;27;20041;-74
2023/02/20 02:49:33;;;;;;;8.52;3.28;;;;;;;2.57;100.00;94011.13;2132471;27;20030;-75
2023/02/20 02:50:38;;;;;;;8.95;3.08;;;;;;;2.50;100.00;94009.84;2131846;27;20026;-74
2023/02/20 02:51:44;;;;;;;7.75;3.20;;;;;;;2.68;100.00;94006.84;2136326;27;20035;-72
2023/02/20 02:52:48;;;;;;;8.82;3.15;;;;;;;2.61;100.00;94009.31;2137184;27;20075;-73
2023/02/20 02:54:04;;;;;;;10.65;3.25;;;;;;;2.60;100.00;94007.81;2136728;27;20030;-74
2023/02/20 02:55:09;;;;;;;9.38;3.38;;;;;;;2.49;100.00;94007.53;2136755;27;20038;-75
2023/02/20 02:56:22;;;;;;;9.10;3.05;;;;;;;2.46;100.00;94011.66;2136820;27;20903;-73
2023/02/20 02:57:27;;;;;;;6.95;2.83;;;;;;;2.51;100.00;94010.63;2136262;27;20336;-73
2023/02/20 02:58:28;;;;;;;9.05;3.05;;;;;;;2.53;100.00;94009.16;2135722;27;20581;-74
2023/02/20 02:59:32;;;;;;;10.30;3.05;;;;;;;2.42;100.00;94007.41;2133150;27;20030;-74
2023/02/20 03:00:47;;;;;;;7.95;3.10;;;;;;;2.44;100.00;94016.47;2135015;27;20464;-73
2023/02/20 03:01:54;;;;;;;6.68;2.72;;;;;;;2.39;100.00;94002.78;2135462;27;20040;-73
2023/02/20 03:03:16;;;;;;;8.07;2.92;;;;;;;2.32;100.00;94003.38;2135885;27;20106;-73
2023/02/20 03:04:22;;;;;;;6.25;2.80;;;;;;;2.27;100.00;94007.03;2136278;27;20783;-72
2023/02/20 03:05:39;;;;;;;6.93;2.33;;;;;;;2.25;100.00;94001.34;2136183;27;20038;-73
2023/02/20 03:06:45;;;;;;;8.18;2.70;;;;;;;2.19;100.00;94000.06;2132684;27;20034;-74
2023/02/20 03:07:53;;;;;;;6.82;2.53;;;;;;;2.15;100.00;94001.88;2136098;27;20046;-73
2023/02/20 03:09:01;;;;;;;5.22;3.20;;;;;;;2.11;100.00;94000.22;2135864;27;20050;-73
2023/02/20 03:10:05;;;;;;;9.13;3.17;;;;;;;2.03;100.00;93998.53;2135648;27;20058;-73
2023/02/20 03:11:19;;;;;;;10.80;3.10;;;;;;;2.02;100.00;94008.31;2129456;27;20035;-74
2023/02/20 03:12:24;;;;;;;5.05;2.72;;;;;;;1.97;100.00;94003.28;2132683;27;20087;-74
2023/02/20 03:15:34;;;;;;;4.45;2.80;;;;;;;1.89;100.00;94001.56;2124351;27;20433;-73
2023/02/20 03:17:16;;;;;;;3.10;2.60;;;;;;;1.85;100.00;94001.50;2121969;27;20657;-74
2023/02/20 03:18:34;;;;;;;4.70;3.30;;;;;;;1.76;100.00;93988.47;2082767;28;20132;-74
2023/02/20 03:19:51;;;;;;;6.05;2.63;;;;;;;1.66;100.00;93990.81;2122513;27;20054;-75
2023/02/20 03:21:00;;;;;;;7.53;2.53;;;;;;;1.59;100.00;93985.38;2127066;27;20473;-75
2023/02/20 03:22:04;;;;;;;7.35;3.00;;;;;;;1.59;100.00;93990.66;2126297;27;20427;-73
2023/02/20 03:23:08;;;;;;;4.38;2.70;;;;;;;1.66;100.00;93980.28;2125175;27;20133;-74
2023/02/20 03:24:13;;;;;;;5.40;2.30;;;;;;;1.65;100.00;93987.41;2126979;27;20035;-74
2023/02/20 03:25:19;;;;;;;7.57;2.90;;;;;;;1.59;100.00;93995.91;2117885;28;20027;-74
2023/02/20 03:26:27;;;;;;;7.70;3.33;;;;;;;1.69;100.00;93982.25;2119590;27;20054;-74
2023/02/20 03:27:43;;;;;;;5.93;2.47;;;;;;;1.69;100.00;93982.25;2127846;27;20346;-73
2023/02/20 03:29:00;;;;;;;5.75;2.38;;;;;;;1.67;100.00;93981.84;2124531;27;20026;-73
2023/02/20 03:30:03;;;;;;;8.00;3.13;;;;;;;1.61;100.00;93980.53;2125028;27;20046;-74
2023/02/20 03:31:39;;;;;;;7.38;2.60;;;;;;;1.46;100.00;93980.16;2117172;27;20138;-74
2023/02/20 03:44:00;;;;;;;5.57;2.78;;;;;;;1.02;100.00;93984.59;2121095;27;20055;-76
2023/02/20 03:45:04;;;;;;;4.03;2.40;;;;;;;1.00;100.00;93982.28;2120538;27;20030;-74
2023/02/20 03:46:13;;;;;;;8.00;2.70;;;;;;;0.99;100.00;93975.50;2108173;27;20110;-75
2023/02/20 03:47:17;;;;;;;5.57;2.60;;;;;;;0.94;100.00;93975.72;2120361;27;20031;-74
2023/02/20 03:48:24;;;;;;;4.35;2.65;;;;;;;0.90;100.00;93977.50;2117677;27;20122;-74
2023/02/20 03:49:32;;;;;;;6.50;2.97;;;;;;;0.88;100.00;93982.34;2120453;27;20464;-75
2023/02/20 03:51:57;;;;;;;6.97;2.50;;;;;;;0.84;100.00;93985.97;2120039;27;20155;-75
2023/02/20 03:52:59;;;;;;;5.18;2.22;;;;;;;0.88;100.00;93978.91;2112447;28;20481;-74
2023/02/20 03:54:04;;;;;;;7.32;2.60;;;;;;;0.89;100.00;93978.59;2120544;27;20058;-74
2023/02/20 03:55:08;;;;;;;7.20;2.72;;;;;;;0.93;100.00;93990.00;2117125;27;20667;-73
2023/02/20 03:56:17;;;;;;;6.53;2.70;;;;;;;0.96;100.00;93985.91;2120691;27;20136;-73
2023/02/20 03:57:35;;;;;;;7.63;3.03;;;;;;;0.96;100.00;93989.31;2120700;27;20423;-74
2023/02/20 03:58:39;;;;;;;7.43;3.25;;;;;;;0.97;100.00;93985.59;2113360;27;20036;-73
2023/02/20 03:59:49;;;;;;;8.70;3.50;;;;;;;1.02;100.00;93981.22;2118354;27;20058;-73
2023/02/20 04:00:54;;;;;;;11.05;3.50;;;;;;;0.99;100.00;93978.13;2120905;27;20092;-75
2023/02/20 04:01:58;;;;;;;7.95;3.55;;;;;;;1.04;100.00;93971.88;2120432;27;20122;-74
2023/02/20 04:03:09;;;;;;;7.13;2.97;;;;;;;1.03;100.00;93980.88;2120202;27;20727;-73
2023/02/20 04:04:16;;;;;;;10.30;3.60;;;;;;;1.17;100.00;93981.25;2110124;27;20151;-73
2023/02/20 04:05:24;;;;;;;7.13;3.55;;;;;;;1.14;100.00;93975.88;2113595;27;20038;-73
2023/02/20 04:06:32;;;;;;;9.73;3.70;;;;;;;1.12;100.00;93976.22;2121889;27;20150;-74
2023/02/20 04:07:40;;;;;;;5.78;3.65;;;;;;;1.11;100.00;93977.34;2122154;27;20057;-74
2023/02/20 04:08:54;;;;;;;8.70;3.38;;;;;;;1.10;100.00;93978.44;2118434;27;20031;-73
2023/02/20 04:10:01;;;;;;;9.02;3.80;;;;;;;1.10;100.00;93980.28;2121573;27;20030;-74
2023/02/20 04:11:34;;;;;;;11.38;3.72;;;;;;;1.26;100.00;93976.63;2118142;27;20338;-73
2023/02/20 04:12:40;;;;;;;10.50;3.53;;;;;;;1.30;100.00;93968.81;2114314;27;20761;-73
2023/02/20 04:13:43;;;;;;;5.95;3.70;;;;;;;1.37;100.00;93981.41;2121568;27;20039;-75
2023/02/20 04:14:46;;;;;;;6.80;3.33;;;;;;;1.32;100.00;93971.91;2121705;27;20035;-73
2023/02/20 04:15:48;;;;;;;8.20;3.80;;;;;;;1.42;100.00;93974.03;2119821;27;20573;-75
2023/02/20 04:16:54;;;;;;;8.38;3.50;;;;;;;1.70;100.00;93975.88;2120643;27;20104;-74
2023/02/20 04:18:05;;;;;;;6.25;3.13;;;;;;;1.88;100.00;93978.94;2121625;27;20437;-75
2023/02/20 04:19:06;;;;;;;8.25;3.67;;;;;;;1.68;100.00;93970.94;2116140;27;20046;-75
2023/02/20 04:20:08;;;;;;;6.63;3.22;;;;;;;1.59;100.00;93972.97;2120485;27;20669;-75
2023/02/20 04:21:22;;;;;;;6.75;3.47;;;;;;;1.53;100.00;93984.84;2121094;27;20027;-74
2023/02/20 04:22:28;;;;;;;8.00;3.25;;;;;;;1.42;100.00;93978.53;2119395;27;20042;-75
2023/02/20 04:23:35;;;;;;;5.88;3.10;;;;;;;1.32;100.00;93981.63;2120717;27;20139;-75
2023/02/20 04:24:51;;;;;;;9.35;3.85;;;;;;;1.26;100.00;93973.97;2117445;27;20573;-75
2023/02/20 04:25:57;;;;;;;5.72;3.47;;;;;;;1.14;100.00;93981.16;2121459;27;20027;-75
2023/02/20 04:26:58;;;;;;;5.28;3.10;;;;;;;1.14;100.00;93981.16;2121313;27;20042;-75
2023/02/20 04:27:59;;;;;;;5.75;3.50;;;;;;;1.12;100.00;93986.75;2121406;27;20035;-74
2023/02/20 04:29:00;;;;;;;6.03;3.40;;;;;;;1.07;100.00;93983.59;2121109;27;20066;-75
2023/02/20 04:30:02;;;;;;;7.60;3.20;;;;;;;1.04;100.00;93979.00;2120683;27;20369;-75
2023/02/20 04:31:04;;;;;;;6.38;3.45;;;;;;;0.99;100.00;93983.41;2120753;27;20038;-75
2023/02/20 04:32:05;;;;;;;8.80;3.17;;;;;;;0.85;100.00;93980.38;2116518;27;20035;-75
2023/02/20 04:33:10;;;;;;;8.82;3.17;;;;;;;1.01;100.00;93975.19;2120826;27;20128;-75
2023/02/20 04:34:11;;;;;;;10.25;3.20;;;;;;;1.24;100.00;93972.81;2120247;27;20030;-75
2023/02/20 04:35:17;;;;;;;5.78;3.38;;;;;;;1.15;100.00;93980.84;2117092;27;20042;-75
2023/02/20 04:36:19;;;;;;;10.77;4.50;;;;;;;1.11;100.00;93973.94;2120524;27;20553;-74
2023/02/20 04:37:20;;;;;;;9.60;3.75;;;;;;;1.07;100.00;93976.47;2121174;27;20027;-74
2023/02/20 04:38:21;;;;;;;8.77;3.40;;;;;;;1.08;100.00;93977.22;2120909;27;20102;-74
2023/02/20 04:39:22;;;;;;;6.38;3.28;;;;;;;1.09;100.00;93981.38;2120826;27;20074;-75
2023/02/20 04:40:24;;;;;;;8.38;3.40;;;;;;;1.08;100.00;93982.50;2120713;27;20269;-75
2023/02/20 04:41:25;;;;;;;6.00;3.30;;;;;;;1.09;100.00;93982.16;2118727;27;20757;-74
2023/02/20 04:42:26;;;;;;;11.65;4.20;;;;;;;1.14;100.00;93987.22;2119247;27;20031;-75
2023/02/20 04:43:27;;;;;;;5.60;3.65;;;;;;;1.12;100.00;93980.72;2120968;27;20041;-74
2023/02/20 04:44:32;;;;;;;7.40;4.13;;;;;;;1.12;100.00;93981.50;2121043;27;20030;-75
2023/02/20 04:45:33;;;;;;;6.53;3.22;;;;;;;1.02;100.00;93986.47;2121339;27;20035;-74
2023/02/20 04:46:34;;;;;;;6.45;3.53;;;;;;;1.05;100.00;93973.38;2116344;27;20850;-74
2023/02/20 04:47:35;;;;;;;6.05;3.42;;;;;;;0.97;100.00;93975.06;2116554;27;20088;-74
2023/02/20 04:48:37;;;;;;;9.45;3.70;;;;;;;1.16;100.00;93976.34;2119712;27;20095;-74
2023/02/20 04:49:40;;;;;;;3.70;3.35;;;;;;;1.13;100.00;93979.63;2119955;27;20127;-75
2023/02/20 04:50:41;;;;;;;7.32;3.20;;;;;;;1.11;100.00;93973.94;2119977;27;20039;-75
2023/02/20 04:51:42;;;;;;;6.22;3.25;;;;;;;1.09;100.00;93976.13;2119608;27;20030;-75
2023/02/20 04:52:43;;;;;;;6.90;3.10;;;;;;;1.03;100.00;93965.06;2120084;27;20024;-75
2023/02/20 04:53:45;;;;;;;9.75;3.50;;;;;;;1.05;100.00;93970.00;2119841;27;20023;-75
2023/02/20 04:54:48;;;;;;;4.47;3.60;;;;;;;0.90;100.00;93972.22;2111636;27;20106;-76
2023/02/20 04:55:49;;;;;;;7.07;3.40;;;;;;;0.84;100.00;93976.22;2112043;27;20024;-75
2023/02/20 04:56:51;;;;;;;6.35;3.03;;;;;;;0.90;100.00;93974.88;2120095;27;20023;-74
2023/02/20 04:57:52;;;;;;;7.22;3.30;;;;;;;0.94;100.00;93975.72;2120815;27;20477;-74
2023/02/20 04:58:53;;;;;;;24.42;3.95;;;;;;;0.92;100.00;93980.59;2116983;27;20135;-75
2023/02/20 04:59:54;;;;;;;7.60;3.20;;;;;;;1.11;100.00;93971.31;2120177;27;20091;-74
2023/02/20 05:00:55;;;;;;;5.95;3.20;;;;;;;1.07;100.00;93973.06;2120718;27;20119;-75
2023/02/20 05:01:59;;;;;;;5.13;3.05;;;;;;;1.15;100.00;93974.81;2120559;27;20038;-73
2023/02/20 05:03:02;;;;;;;6.25;3.05;;;;;;;1.20;100.00;93975.31;2121110;27;20037;-72
2023/02/20 05:04:04;;;;;;;6.82;3.47;;;;;;;1.14;100.00;93974.03;2120861;27;20034;-72
2023/02/20 05:05:06;;;;;;;6.10;3.80;;;;;;;1.07;100.00;93973.06;2112113;27;20028;-72
2023/02/20 05:06:07;;;;;;;7.82;3.70;;;;;;;1.02;100.00;93971.44;2120454;27;20023;-72
2023/02/20 05:07:08;;;;;;;5.65;3.08;;;;;;;1.06;100.00;93977.56;2120944;27;20106;-73
2023/02/20 05:08:09;;;;;;;11.13;3.20;;;;;;;1.03;100.00;93978.22;2121176;27;20046;-72
2023/02/20 05:09:10;;;;;;;8.85;2.92;;;;;;;0.95;100.00;93976.50;2120085;27;20963;-73
2023/02/20 05:10:16;;;;;;;6.50;3.00;;;;;;;0.85;100.00;93972.47;2120162;27;20050;-73
2023/02/20 05:11:17;;;;;;;6.05;3.08;;;;;;;0.69;100.00;93964.50;2115583;27;20036;-73
2023/02/20 05:12:24;;;;;;;6.63;3.88;;;;;;;0.64;100.00;93966.59;2117398;27;20410;-79
2023/02/20 05:13:26;;;;;;;5.38;3.03;;;;;;;0.67;100.00;93971.97;2118496;27;20027;-74
2023/02/20 05:14:28;;;;;;;7.28;3.22;;;;;;;0.68;100.00;93970.09;2119984;27;20042;-73
2023/02/20 05:15:30;;;;;;;9.05;3.25;;;;;;;0.70;100.00;93968.69;2120083;27;20081;-73
2023/02/20 05:16:31;;;;;;;9.65;2.95;;;;;;;0.65;100.00;93970.75;2119519;27;20035;-74
2023/02/20 05:17:32;;;;;;;6.68;3.10;;;;;;;0.60;100.00;93963.09;2116227;27;20397;-72
2023/02/20 05:18:33;;;;;;;7.03;3.20;;;;;;;0.50;100.00;93961.69;2123857;27;20173;-71
2023/02/20 05:19:35;;;;;;;5.68;3.00;;;;;;;0.42;100.00;93959.94;2125162;27;20038;-72
2023/02/20 05:23:15;;;;;;;5.93;2.80;;;;;;;0.30;100.00;93963.31;2128707;27;20172;-73
2023/02/20 05:24:16;;;;;;;13.07;3.63;;;;;;;0.16;100.00;93957.63;2129299;27;20384;-73
2023/02/20 05:25:17;;;;;;;4.85;2.95;;;;;;;0.22;100.00;93959.72;2129320;27;20035;-73
2023/02/20 05:26:20;;;;;;;4.20;2.78;;;;;;;0.18;100.00;93971.25;2129068;27;20078;-73